Terminal Aerodrome Forecast
Issued by NWS

Home | Current Version | Previous Version | Text Only | Print | Product List | Glossary On
Versions: 1 2 3 4 5 6 7 8 9 10 11 12 13 14 15 16 17 18 19 20 21
000
FTUS45 KTFX 031312 AAA
TAFHVR
TAF AMD
KHVR 031312Z 0313/0412 09006KT 2SM HZ SCT100
      TEMPO 0313/0317 3SM HZ
     FM031700 14007KT 6SM HZ FEW100 SCT250
     FM040300 22006KT P6SM SCT100=

USA.gov is the U.S. government's official web portal to all federal, state and local government web resources and services.